sensor_id;sensor_type;location;lat;lon;timestamp;P1;durP1;ratioP1;P2;durP2;ratioP2
16199;SDS011;8207;52.494;4.654;2023-05-16T00:00:59;7.83;;;1.87;;
16199;SDS011;8207;52.494;4.654;2023-05-16T00:03:26;10.27;;;2.67;;
16199;SDS011;8207;52.494;4.654;2023-05-16T00:05:54;12.37;;;2.27;;
16199;SDS011;8207;52.494;4.654;2023-05-16T00:08:22;9.47;;;2.40;;
16199;SDS011;8207;52.494;4.654;2023-05-16T00:10:48;8.53;;;1.87;;
16199;SDS011;8207;52.494;4.654;2023-05-16T00:13:17;10.40;;;2.30;;
16199;SDS011;8207;52.494;4.654;2023-05-16T00:15:49;11.80;;;2.30;;
16199;SDS011;8207;52.494;4.654;2023-05-16T00:18:16;10.80;;;2.30;;
16199;SDS011;8207;52.494;4.654;2023-05-16T00:20:43;14.43;;;2.43;;
16199;SDS011;8207;52.494;4.654;2023-05-16T00:23:10;12.00;;;2.73;;
16199;SDS011;8207;52.494;4.654;2023-05-16T00:25:37;11.57;;;2.70;;
16199;SDS011;8207;52.494;4.654;2023-05-16T00:28:04;9.57;;;1.90;;
16199;SDS011;8207;52.494;4.654;2023-05-16T00:30:33;11.43;;;2.80;;
16199;SDS011;8207;52.494;4.654;2023-05-16T00:33:00;10.70;;;2.33;;
16199;SDS011;8207;52.494;4.654;2023-05-16T00:35:27;10.70;;;2.33;;
16199;SDS011;8207;52.494;4.654;2023-05-16T00:37:54;14.50;;;3.43;;
16199;SDS011;8207;52.494;4.654;2023-05-16T00:40:21;17.93;;;2.43;;
16199;SDS011;8207;52.494;4.654;2023-05-16T00:42:48;12.10;;;2.87;;
16199;SDS011;8207;52.494;4.654;2023-05-16T00:45:14;15.93;;;2.53;;
16199;SDS011;8207;52.494;4.654;2023-05-16T00:47:43;11.53;;;2.40;;
16199;SDS011;8207;52.494;4.654;2023-05-16T00:50:10;8.07;;;2.10;;
16199;SDS011;8207;52.494;4.654;2023-05-16T00:52:37;13.50;;;2.47;;
16199;SDS011;8207;52.494;4.654;2023-05-16T00:55:04;9.17;;;2.77;;
16199;SDS011;8207;52.494;4.654;2023-05-16T00:57:33;16.93;;;2.30;;
16199;SDS011;8207;52.494;4.654;2023-05-16T00:59:59;10.83;;;2.30;;
16199;SDS011;8207;52.494;4.654;2023-05-16T01:02:26;9.53;;;2.13;;
16199;SDS011;8207;52.494;4.654;2023-05-16T01:04:55;9.33;;;1.90;;
16199;SDS011;8207;52.494;4.654;2023-05-16T01:07:23;7.53;;;2.27;;
16199;SDS011;8207;52.494;4.654;2023-05-16T01:09:50;5.03;;;1.80;;
16199;SDS011;8207;52.494;4.654;2023-05-16T01:12:21;9.73;;;2.03;;
16199;SDS011;8207;52.494;4.654;2023-05-16T01:14:55;8.03;;;2.00;;
16199;SDS011;8207;52.494;4.654;2023-05-16T01:17:32;11.53;;;2.17;;
16199;SDS011;8207;52.494;4.654;2023-05-16T01:20:08;8.23;;;1.93;;
16199;SDS011;8207;52.494;4.654;2023-05-16T01:22:49;7.53;;;1.60;;
16199;SDS011;8207;52.494;4.654;2023-05-16T01:25:36;7.83;;;1.80;;
16199;SDS011;8207;52.494;4.654;2023-05-16T01:28:18;10.50;;;1.80;;
16199;SDS011;8207;52.494;4.654;2023-05-16T01:30:45;11.60;;;1.80;;
16199;SDS011;8207;52.494;4.654;2023-05-16T01:33:12;9.37;;;2.30;;
16199;SDS011;8207;52.494;4.654;2023-05-16T01:35:42;6.87;;;1.70;;
16199;SDS011;8207;52.494;4.654;2023-05-16T01:38:17;13.63;;;2.60;;
16199;SDS011;8207;52.494;4.654;2023-05-16T01:40:52;8.23;;;1.83;;
16199;SDS011;8207;52.494;4.654;2023-05-16T01:43:28;10.17;;;2.17;;
16199;SDS011;8207;52.494;4.654;2023-05-16T01:46:03;6.90;;;2.00;;
16199;SDS011;8207;52.494;4.654;2023-05-16T01:48:38;7.90;;;1.83;;
16199;SDS011;8207;52.494;4.654;2023-05-16T01:51:09;11.90;;;2.20;;
16199;SDS011;8207;52.494;4.654;2023-05-16T01:53:38;9.10;;;1.97;;
16199;SDS011;8207;52.494;4.654;2023-05-16T01:56:07;9.57;;;2.57;;
16199;SDS011;8207;52.494;4.654;2023-05-16T01:58:37;11.90;;;2.37;;
16199;SDS011;8207;52.494;4.654;2023-05-16T02:01:05;11.23;;;2.20;;
16199;SDS011;8207;52.494;4.654;2023-05-16T02:03:32;6.80;;;1.77;;
16199;SDS011;8207;52.494;4.654;2023-05-16T02:06:00;11.37;;;2.23;;
16199;SDS011;8207;52.494;4.654;2023-05-16T02:08:27;11.30;;;2.33;;
16199;SDS011;8207;52.494;4.654;2023-05-16T02:10:54;7.43;;;1.80;;
16199;SDS011;8207;52.494;4.654;2023-05-16T02:13:21;12.10;;;2.20;;
16199;SDS011;8207;52.494;4.654;2023-05-16T02:15:49;13.27;;;3.40;;
16199;SDS011;8207;52.494;4.654;2023-05-16T02:18:17;8.60;;;1.97;;
16199;SDS011;8207;52.494;4.654;2023-05-16T02:20:43;8.87;;;1.90;;
16199;SDS011;8207;52.494;4.654;2023-05-16T02:23:11;11.00;;;2.00;;
16199;SDS011;8207;52.494;4.654;2023-05-16T02:25:38;6.47;;;1.70;;
16199;SDS011;8207;52.494;4.654;2023-05-16T02:28:05;8.23;;;1.83;;
16199;SDS011;8207;52.494;4.654;2023-05-16T02:30:32;6.83;;;1.67;;
16199;SDS011;8207;52.494;4.654;2023-05-16T02:33:00;13.57;;;2.43;;
16199;SDS011;8207;52.494;4.654;2023-05-16T02:35:27;11.73;;;2.20;;
16199;SDS011;8207;52.494;4.654;2023-05-16T02:37:54;8.50;;;1.93;;
16199;SDS011;8207;52.494;4.654;2023-05-16T02:40:21;10.33;;;2.10;;
16199;SDS011;8207;52.494;4.654;2023-05-16T02:42:48;12.13;;;2.07;;
16199;SDS011;8207;52.494;4.654;2023-05-16T02:45:15;6.90;;;1.50;;
16199;SDS011;8207;52.494;4.654;2023-05-16T02:47:42;9.67;;;2.07;;
16199;SDS011;8207;52.494;4.654;2023-05-16T02:50:10;8.40;;;2.00;;
16199;SDS011;8207;52.494;4.654;2023-05-16T02:52:37;8.63;;;2.00;;
16199;SDS011;8207;52.494;4.654;2023-05-16T02:55:05;9.57;;;2.67;;
16199;SDS011;8207;52.494;4.654;2023-05-16T02:57:32;8.20;;;2.17;;
16199;SDS011;8207;52.494;4.654;2023-05-16T02:59:59;11.40;;;2.30;;
16199;SDS011;8207;52.494;4.654;2023-05-16T03:02:26;7.90;;;1.83;;
16199;SDS011;8207;52.494;4.654;2023-05-16T03:04:53;8.97;;;1.90;;
16199;SDS011;8207;52.494;4.654;2023-05-16T03:07:21;8.20;;;1.77;;
16199;SDS011;8207;52.494;4.654;2023-05-16T03:09:48;9.70;;;1.63;;
16199;SDS011;8207;52.494;4.654;2023-05-16T03:12:15;5.83;;;2.07;;
16199;SDS011;8207;52.494;4.654;2023-05-16T03:14:42;10.07;;;2.27;;
16199;SDS011;8207;52.494;4.654;2023-05-16T03:17:09;7.47;;;1.70;;
16199;SDS011;8207;52.494;4.654;2023-05-16T03:19:36;9.90;;;2.40;;
16199;SDS011;8207;52.494;4.654;2023-05-16T03:22:03;9.53;;;1.60;;
16199;SDS011;8207;52.494;4.654;2023-05-16T03:24:31;5.37;;;1.73;;
16199;SDS011;8207;52.494;4.654;2023-05-16T03:26:58;7.10;;;1.67;;
16199;SDS011;8207;52.494;4.654;2023-05-16T03:29:25;9.33;;;1.57;;
16199;SDS011;8207;52.494;4.654;2023-05-16T03:31:52;11.27;;;2.33;;
16199;SDS011;8207;52.494;4.654;2023-05-16T03:34:19;11.90;;;2.10;;
16199;SDS011;8207;52.494;4.654;2023-05-16T03:36:47;7.77;;;2.17;;
16199;SDS011;8207;52.494;4.654;2023-05-16T03:39:13;6.80;;;1.77;;
16199;SDS011;8207;52.494;4.654;2023-05-16T03:41:43;9.83;;;1.80;;
16199;SDS011;8207;52.494;4.654;2023-05-16T03:44:10;8.83;;;1.63;;
16199;SDS011;8207;52.494;4.654;2023-05-16T03:46:36;7.87;;;1.77;;
16199;SDS011;8207;52.494;4.654;2023-05-16T03:49:03;10.53;;;1.70;;
16199;SDS011;8207;52.494;4.654;2023-05-16T03:51:30;13.40;;;2.37;;
16199;SDS011;8207;52.494;4.654;2023-05-16T03:53:58;6.23;;;1.50;;
16199;SDS011;8207;52.494;4.654;2023-05-16T03:56:25;10.63;;;2.83;;
16199;SDS011;8207;52.494;4.654;2023-05-16T03:58:53;5.23;;;2.13;;
16199;SDS011;8207;52.494;4.654;2023-05-16T04:01:20;11.27;;;2.33;;
16199;SDS011;8207;52.494;4.654;2023-05-16T04:03:47;6.93;;;1.80;;
16199;SDS011;8207;52.494;4.654;2023-05-16T04:06:14;8.37;;;2.00;;
16199;SDS011;8207;52.494;4.654;2023-05-16T04:08:41;8.37;;;1.93;;
16199;SDS011;8207;52.494;4.654;2023-05-16T04:11:09;12.37;;;1.90;;
16199;SDS011;8207;52.494;4.654;2023-05-16T04:13:36;9.10;;;1.50;;
16199;SDS011;8207;52.494;4.654;2023-05-16T04:16:04;8.20;;;1.63;;
16199;SDS011;8207;52.494;4.654;2023-05-16T04:18:32;10.40;;;2.27;;
16199;SDS011;8207;52.494;4.654;2023-05-16T04:20:59;6.33;;;1.30;;
16199;SDS011;8207;52.494;4.654;2023-05-16T04:23:25;6.83;;;1.40;;
16199;SDS011;8207;52.494;4.654;2023-05-16T04:25:52;10.93;;;1.87;;
16199;SDS011;8207;52.494;4.654;2023-05-16T04:28:20;6.23;;;1.63;;
16199;SDS011;8207;52.494;4.654;2023-05-16T04:30:47;11.93;;;1.87;;
16199;SDS011;8207;52.494;4.654;2023-05-16T04:33:15;6.70;;;1.73;;
16199;SDS011;8207;52.494;4.654;2023-05-16T04:35:42;5.43;;;1.40;;
16199;SDS011;8207;52.494;4.654;2023-05-16T04:38:09;8.53;;;1.63;;
16199;SDS011;8207;52.494;4.654;2023-05-16T04:40:36;8.80;;;1.70;;
16199;SDS011;8207;52.494;4.654;2023-05-16T04:43:04;8.60;;;2.10;;
16199;SDS011;8207;52.494;4.654;2023-05-16T04:45:31;13.17;;;2.87;;
16199;SDS011;8207;52.494;4.654;2023-05-16T04:47:59;7.60;;;1.50;;
16199;SDS011;8207;52.494;4.654;2023-05-16T04:50:27;7.73;;;1.63;;
16199;SDS011;8207;52.494;4.654;2023-05-16T04:52:54;7.33;;;1.63;;
16199;SDS011;8207;52.494;4.654;2023-05-16T04:55:21;5.57;;;1.57;;
16199;SDS011;8207;52.494;4.654;2023-05-16T04:57:48;8.93;;;2.00;;
16199;SDS011;8207;52.494;4.654;2023-05-16T05:00:16;9.60;;;1.70;;
16199;SDS011;8207;52.494;4.654;2023-05-16T05:02:43;10.87;;;1.40;;
16199;SDS011;8207;52.494;4.654;2023-05-16T05:05:10;6.10;;;1.80;;
16199;SDS011;8207;52.494;4.654;2023-05-16T05:07:39;6.93;;;1.23;;
16199;SDS011;8207;52.494;4.654;2023-05-16T05:10:07;6.77;;;1.30;;
16199;SDS011;8207;52.494;4.654;2023-05-16T05:12:35;6.77;;;1.77;;
16199;SDS011;8207;52.494;4.654;2023-05-16T05:15:02;7.87;;;1.23;;
16199;SDS011;8207;52.494;4.654;2023-05-16T05:17:30;6.43;;;1.90;;
16199;SDS011;8207;52.494;4.654;2023-05-16T05:19:57;8.23;;;2.37;;
16199;SDS011;8207;52.494;4.654;2023-05-16T05:22:24;6.83;;;1.53;;
16199;SDS011;8207;52.494;4.654;2023-05-16T05:24:52;6.33;;;1.67;;
16199;SDS011;8207;52.494;4.654;2023-05-16T05:27:19;5.50;;;1.30;;
16199;SDS011;8207;52.494;4.654;2023-05-16T05:29:46;7.00;;;1.33;;
16199;SDS011;8207;52.494;4.654;2023-05-16T05:32:13;7.97;;;1.60;;
16199;SDS011;8207;52.494;4.654;2023-05-16T05:34:40;8.50;;;2.10;;
16199;SDS011;8207;52.494;4.654;2023-05-16T05:37:07;9.10;;;1.57;;
16199;SDS011;8207;52.494;4.654;2023-05-16T05:39:34;7.03;;;2.03;;
16199;SDS011;8207;52.494;4.654;2023-05-16T05:42:02;5.90;;;1.27;;
16199;SDS011;8207;52.494;4.654;2023-05-16T05:44:29;4.47;;;1.37;;
16199;SDS011;8207;52.494;4.654;2023-05-16T05:46:57;10.17;;;2.80;;
16199;SDS011;8207;52.494;4.654;2023-05-16T05:49:24;9.90;;;2.20;;
16199;SDS011;8207;52.494;4.654;2023-05-16T05:51:52;9.33;;;1.60;;
16199;SDS011;8207;52.494;4.654;2023-05-16T05:54:19;10.23;;;1.70;;
16199;SDS011;8207;52.494;4.654;2023-05-16T05:56:46;9.37;;;1.40;;
16199;SDS011;8207;52.494;4.654;2023-05-16T05:59:14;3.90;;;1.10;;
16199;SDS011;8207;52.494;4.654;2023-05-16T06:01:41;3.80;;;1.20;;
16199;SDS011;8207;52.494;4.654;2023-05-16T06:04:09;5.90;;;1.40;;
16199;SDS011;8207;52.494;4.654;2023-05-16T06:06:36;6.60;;;1.70;;
16199;SDS011;8207;52.494;4.654;2023-05-16T06:09:04;6.43;;;1.30;;
16199;SDS011;8207;52.494;4.654;2023-05-16T06:11:31;7.63;;;1.80;;
16199;SDS011;8207;52.494;4.654;2023-05-16T06:13:57;7.27;;;1.97;;
16199;SDS011;8207;52.494;4.654;2023-05-16T06:16:26;6.07;;;1.40;;
16199;SDS011;8207;52.494;4.654;2023-05-16T06:18:53;7.10;;;1.30;;
16199;SDS011;8207;52.494;4.654;2023-05-16T06:21:20;8.73;;;1.30;;
16199;SDS011;8207;52.494;4.654;2023-05-16T06:23:46;6.40;;;1.30;;
16199;SDS011;8207;52.494;4.654;2023-05-16T06:26:13;6.73;;;1.80;;
16199;SDS011;8207;52.494;4.654;2023-05-16T06:28:40;5.30;;;1.60;;
16199;SDS011;8207;52.494;4.654;2023-05-16T06:31:07;8.73;;;1.57;;
16199;SDS011;8207;52.494;4.654;2023-05-16T06:33:36;4.90;;;1.30;;
16199;SDS011;8207;52.494;4.654;2023-05-16T06:36:03;6.77;;;1.30;;
16199;SDS011;8207;52.494;4.654;2023-05-16T06:38:30;5.78;;;1.25;;
16199;SDS011;8207;52.494;4.654;2023-05-16T06:40:56;4.50;;;1.20;;
16199;SDS011;8207;52.494;4.654;2023-05-16T06:43:23;5.30;;;1.50;;
16199;SDS011;8207;52.494;4.654;2023-05-16T06:45:50;4.03;;;1.30;;
16199;SDS011;8207;52.494;4.654;2023-05-16T06:48:17;4.30;;;1.43;;
16199;SDS011;8207;52.494;4.654;2023-05-16T06:50:47;9.07;;;1.60;;
16199;SDS011;8207;52.494;4.654;2023-05-16T06:53:15;6.90;;;1.57;;
16199;SDS011;8207;52.494;4.654;2023-05-16T06:55:42;12.60;;;2.17;;
16199;SDS011;8207;52.494;4.654;2023-05-16T06:58:09;7.23;;;1.27;;
16199;SDS011;8207;52.494;4.654;2023-05-16T07:00:36;5.25;;;1.27;;
16199;SDS011;8207;52.494;4.654;2023-05-16T07:03:03;6.50;;;1.17;;
16199;SDS011;8207;52.494;4.654;2023-05-16T07:05:30;4.13;;;1.25;;
16199;SDS011;8207;52.494;4.654;2023-05-16T07:07:59;5.25;;;1.45;;
16199;SDS011;8207;52.494;4.654;2023-05-16T07:10:26;6.35;;;1.20;;
16199;SDS011;8207;52.494;4.654;2023-05-16T07:12:53;6.13;;;1.58;;
16199;SDS011;8207;52.494;4.654;2023-05-16T07:15:20;6.30;;;1.58;;
16199;SDS011;8207;52.494;4.654;2023-05-16T07:17:47;6.65;;;1.38;;
16199;SDS011;8207;52.494;4.654;2023-05-16T07:20:15;7.93;;;1.67;;
16199;SDS011;8207;52.494;4.654;2023-05-16T07:22:41;5.97;;;1.48;;
16199;SDS011;8207;52.494;4.654;2023-05-16T07:25:10;6.13;;;1.67;;
16199;SDS011;8207;52.494;4.654;2023-05-16T07:27:38;6.40;;;1.48;;
16199;SDS011;8207;52.494;4.654;2023-05-16T07:30:09;6.38;;;1.25;;
16199;SDS011;8207;52.494;4.654;2023-05-16T07:32:36;4.45;;;1.20;;
16199;SDS011;8207;52.494;4.654;2023-05-16T07:35:03;6.60;;;1.50;;
16199;SDS011;8207;52.494;4.654;2023-05-16T07:37:31;7.35;;;1.52;;
16199;SDS011;8207;52.494;4.654;2023-05-16T07:39:58;6.35;;;1.60;;
16199;SDS011;8207;52.494;4.654;2023-05-16T07:42:26;5.43;;;1.15;;
16199;SDS011;8207;52.494;4.654;2023-05-16T07:44:53;7.35;;;1.55;;
16199;SDS011;8207;52.494;4.654;2023-05-16T07:47:21;6.45;;;1.70;;
16199;SDS011;8207;52.494;4.654;2023-05-16T07:49:48;5.03;;;1.70;;
16199;SDS011;8207;52.494;4.654;2023-05-16T07:52:14;6.35;;;1.63;;
16199;SDS011;8207;52.494;4.654;2023-05-16T07:54:41;6.05;;;1.65;;
16199;SDS011;8207;52.494;4.654;2023-05-16T07:57:09;4.85;;;1.42;;
16199;SDS011;8207;52.494;4.654;2023-05-16T07:59:38;7.72;;;1.70;;
16199;SDS011;8207;52.494;4.654;2023-05-16T08:02:05;8.20;;;1.25;;
16199;SDS011;8207;52.494;4.654;2023-05-16T08:04:32;6.95;;;1.90;;
16199;SDS011;8207;52.494;4.654;2023-05-16T08:06:58;4.60;;;1.30;;
16199;SDS011;8207;52.494;4.654;2023-05-16T08:09:25;7.32;;;2.05;;
16199;SDS011;8207;52.494;4.654;2023-05-16T08:11:52;4.57;;;1.58;;
16199;SDS011;8207;52.494;4.654;2023-05-16T08:14:19;4.63;;;1.60;;
16199;SDS011;8207;52.494;4.654;2023-05-16T08:16:47;6.25;;;1.25;;
16199;SDS011;8207;52.494;4.654;2023-05-16T08:19:14;2.60;;;0.90;;
16199;SDS011;8207;52.494;4.654;2023-05-16T08:21:41;5.10;;;1.75;;
16199;SDS011;8207;52.494;4.654;2023-05-16T08:24:08;4.18;;;1.30;;
16199;SDS011;8207;52.494;4.654;2023-05-16T08:26:35;4.80;;;1.30;;
16199;SDS011;8207;52.494;4.654;2023-05-16T08:29:02;3.67;;;1.10;;
16199;SDS011;8207;52.494;4.654;2023-05-16T08:31:29;6.28;;;1.30;;
16199;SDS011;8207;52.494;4.654;2023-05-16T08:33:58;5.15;;;1.00;;
16199;SDS011;8207;52.494;4.654;2023-05-16T08:36:25;5.78;;;1.75;;
16199;SDS011;8207;52.494;4.654;2023-05-16T08:38:52;4.05;;;1.00;;
16199;SDS011;8207;52.494;4.654;2023-05-16T08:41:20;4.40;;;1.50;;
16199;SDS011;8207;52.494;4.654;2023-05-16T08:43:47;4.07;;;1.20;;
16199;SDS011;8207;52.494;4.654;2023-05-16T08:46:14;5.05;;;1.10;;
16199;SDS011;8207;52.494;4.654;2023-05-16T08:48:46;5.60;;;1.30;;
16199;SDS011;8207;52.494;4.654;2023-05-16T08:51:19;5.03;;;1.08;;
16199;SDS011;8207;52.494;4.654;2023-05-16T08:53:49;5.20;;;1.25;;
16199;SDS011;8207;52.494;4.654;2023-05-16T08:56:19;7.72;;;1.30;;
16199;SDS011;8207;52.494;4.654;2023-05-16T08:58:47;7.55;;;1.52;;
16199;SDS011;8207;52.494;4.654;2023-05-16T09:01:15;8.65;;;1.50;;
16199;SDS011;8207;52.494;4.654;2023-05-16T09:03:44;5.30;;;1.33;;
16199;SDS011;8207;52.494;4.654;2023-05-16T09:06:12;5.68;;;1.15;;
16199;SDS011;8207;52.494;4.654;2023-05-16T09:08:41;5.55;;;1.42;;
16199;SDS011;8207;52.494;4.654;2023-05-16T09:11:08;6.03;;;1.25;;
16199;SDS011;8207;52.494;4.654;2023-05-16T09:13:36;5.03;;;1.73;;
16199;SDS011;8207;52.494;4.654;2023-05-16T09:16:09;4.55;;;1.60;;
16199;SDS011;8207;52.494;4.654;2023-05-16T09:18:37;8.57;;;1.60;;
16199;SDS011;8207;52.494;4.654;2023-05-16T09:21:04;3.45;;;1.23;;
16199;SDS011;8207;52.494;4.654;2023-05-16T09:23:32;5.30;;;1.40;;
16199;SDS011;8207;52.494;4.654;2023-05-16T09:26:01;5.55;;;1.25;;
16199;SDS011;8207;52.494;4.654;2023-05-16T09:28:31;5.15;;;1.50;;
16199;SDS011;8207;52.494;4.654;2023-05-16T09:30:58;3.30;;;1.02;;
16199;SDS011;8207;52.494;4.654;2023-05-16T09:33:26;3.20;;;1.25;;
16199;SDS011;8207;52.494;4.654;2023-05-16T09:35:54;4.15;;;1.23;;
16199;SDS011;8207;52.494;4.654;2023-05-16T09:38:22;5.88;;;1.30;;
16199;SDS011;8207;52.494;4.654;2023-05-16T09:40:51;5.57;;;1.55;;
16199;SDS011;8207;52.494;4.654;2023-05-16T09:43:21;4.32;;;1.30;;
16199;SDS011;8207;52.494;4.654;2023-05-16T09:45:50;3.33;;;1.33;;
16199;SDS011;8207;52.494;4.654;2023-05-16T09:48:19;7.60;;;1.25;;
16199;SDS011;8207;52.494;4.654;2023-05-16T09:50:48;8.38;;;1.48;;
16199;SDS011;8207;52.494;4.654;2023-05-16T09:53:16;5.57;;;1.38;;
16199;SDS011;8207;52.494;4.654;2023-05-16T09:55:43;6.72;;;1.75;;
16199;SDS011;8207;52.494;4.654;2023-05-16T09:58:10;6.55;;;1.35;;
16199;SDS011;8207;52.494;4.654;2023-05-16T10:00:38;5.13;;;1.45;;
16199;SDS011;8207;52.494;4.654;2023-05-16T10:03:06;3.85;;;1.33;;
16199;SDS011;8207;52.494;4.654;2023-05-16T10:05:33;7.40;;;1.02;;
16199;SDS011;8207;52.494;4.654;2023-05-16T10:08:02;4.95;;;1.33;;
16199;SDS011;8207;52.494;4.654;2023-05-16T10:10:30;5.13;;;1.20;;
16199;SDS011;8207;52.494;4.654;2023-05-16T10:13:01;6.13;;;1.65;;
16199;SDS011;8207;52.494;4.654;2023-05-16T10:15:31;4.13;;;1.40;;
16199;SDS011;8207;52.494;4.654;2023-05-16T10:18:01;4.95;;;1.40;;
16199;SDS011;8207;52.494;4.654;2023-05-16T10:20:28;3.47;;;1.40;;
16199;SDS011;8207;52.494;4.654;2023-05-16T10:22:55;5.57;;;1.02;;
16199;SDS011;8207;52.494;4.654;2023-05-16T10:25:24;5.45;;;1.20;;
16199;SDS011;8207;52.494;4.654;2023-05-16T10:27:55;4.88;;;1.33;;
16199;SDS011;8207;52.494;4.654;2023-05-16T10:30:22;4.75;;;1.30;;
16199;SDS011;8207;52.494;4.654;2023-05-16T10:32:49;9.07;;;1.40;;
16199;SDS011;8207;52.494;4.654;2023-05-16T10:35:19;4.80;;;1.60;;
16199;SDS011;8207;52.494;4.654;2023-05-16T10:37:46;6.60;;;1.60;;
16199;SDS011;8207;52.494;4.654;2023-05-16T10:40:14;5.05;;;1.23;;
16199;SDS011;8207;52.494;4.654;2023-05-16T10:42:43;4.40;;;1.27;;
16199;SDS011;8207;52.494;4.654;2023-05-16T10:45:20;5.63;;;1.23;;
16199;SDS011;8207;52.494;4.654;2023-05-16T10:47:50;6.60;;;1.20;;
16199;SDS011;8207;52.494;4.654;2023-05-16T10:50:35;6.80;;;1.38;;
16199;SDS011;8207;52.494;4.654;2023-05-16T10:56:05;6.53;;;1.10;;
16199;SDS011;8207;52.494;4.654;2023-05-16T10:58:43;5.15;;;1.20;;
16199;SDS011;8207;52.494;4.654;2023-05-16T11:01:16;4.50;;;1.20;;
16199;SDS011;8207;52.494;4.654;2023-05-16T11:04:06;4.38;;;1.40;;
16199;SDS011;8207;52.494;4.654;2023-05-16T11:06:43;4.95;;;1.40;;
16199;SDS011;8207;52.494;4.654;2023-05-16T11:09:19;4.90;;;1.13;;
16199;SDS011;8207;52.494;4.654;2023-05-16T11:11:53;6.80;;;1.50;;
16199;SDS011;8207;52.494;4.654;2023-05-16T11:14:34;5.88;;;1.05;;
16199;SDS011;8207;52.494;4.654;2023-05-16T11:17:05;4.38;;;1.15;;
16199;SDS011;8207;52.494;4.654;2023-05-16T11:19:34;5.28;;;1.30;;
16199;SDS011;8207;52.494;4.654;2023-05-16T11:22:20;6.40;;;1.25;;
16199;SDS011;8207;52.494;4.654;2023-05-16T11:24:55;5.47;;;1.40;;
16199;SDS011;8207;52.494;4.654;2023-05-16T11:27:30;4.63;;;1.02;;
16199;SDS011;8207;52.494;4.654;2023-05-16T11:30:10;4.13;;;1.20;;
16199;SDS011;8207;52.494;4.654;2023-05-16T11:32:43;4.97;;;1.40;;
16199;SDS011;8207;52.494;4.654;2023-05-16T11:35:14;5.68;;;1.30;;
16199;SDS011;8207;52.494;4.654;2023-05-16T11:37:44;6.47;;;1.15;;
16199;SDS011;8207;52.494;4.654;2023-05-16T11:40:12;4.35;;;1.33;;
16199;SDS011;8207;52.494;4.654;2023-05-16T11:42:41;7.00;;;1.17;;
16199;SDS011;8207;52.494;4.654;2023-05-16T11:45:14;5.00;;;1.60;;
16199;SDS011;8207;52.494;4.654;2023-05-16T11:47:45;5.00;;;1.30;;
16199;SDS011;8207;52.494;4.654;2023-05-16T11:50:18;4.38;;;1.10;;
16199;SDS011;8207;52.494;4.654;2023-05-16T11:52:50;5.70;;;1.52;;
16199;SDS011;8207;52.494;4.654;2023-05-16T11:55:20;5.25;;;1.27;;
16199;SDS011;8207;52.494;4.654;2023-05-16T11:57:48;6.10;;;1.40;;
16199;SDS011;8207;52.494;4.654;2023-05-16T12:00:18;4.05;;;1.20;;
16199;SDS011;8207;52.494;4.654;2023-05-16T12:02:48;5.78;;;1.38;;
16199;SDS011;8207;52.494;4.654;2023-05-16T12:05:16;5.10;;;1.00;;
16199;SDS011;8207;52.494;4.654;2023-05-16T12:07:46;2.97;;;1.23;;
16199;SDS011;8207;52.494;4.654;2023-05-16T12:10:14;5.30;;;1.13;;
16199;SDS011;8207;52.494;4.654;2023-05-16T12:12:43;4.75;;;1.10;;
16199;SDS011;8207;52.494;4.654;2023-05-16T12:15:11;4.45;;;1.30;;
16199;SDS011;8207;52.494;4.654;2023-05-16T12:17:39;5.22;;;1.63;;
16199;SDS011;8207;52.494;4.654;2023-05-16T12:20:07;7.38;;;1.40;;
16199;SDS011;8207;52.494;4.654;2023-05-16T12:22:38;5.40;;;1.10;;
16199;SDS011;8207;52.494;4.654;2023-05-16T12:25:22;2.88;;;0.95;;
16199;SDS011;8207;52.494;4.654;2023-05-16T12:27:51;3.03;;;1.10;;
16199;SDS011;8207;52.494;4.654;2023-05-16T12:30:21;4.57;;;1.23;;
16199;SDS011;8207;52.494;4.654;2023-05-16T12:32:54;4.03;;;1.10;;
16199;SDS011;8207;52.494;4.654;2023-05-16T12:35:21;2.80;;;1.10;;
16199;SDS011;8207;52.494;4.654;2023-05-16T12:37:48;4.68;;;1.08;;
16199;SDS011;8207;52.494;4.654;2023-05-16T12:40:16;3.20;;;1.10;;
16199;SDS011;8207;52.494;4.654;2023-05-16T12:42:46;4.78;;;1.38;;
16199;SDS011;8207;52.494;4.654;2023-05-16T12:45:15;2.05;;;0.80;;
16199;SDS011;8207;52.494;4.654;2023-05-16T12:47:43;2.80;;;0.90;;
16199;SDS011;8207;52.494;4.654;2023-05-16T12:50:10;2.70;;;0.93;;
16199;SDS011;8207;52.494;4.654;2023-05-16T12:52:45;5.45;;;0.93;;
16199;SDS011;8207;52.494;4.654;2023-05-16T12:55:14;6.65;;;1.92;;
16199;SDS011;8207;52.494;4.654;2023-05-16T12:57:41;2.60;;;0.95;;
16199;SDS011;8207;52.494;4.654;2023-05-16T13:00:13;4.53;;;1.00;;
16199;SDS011;8207;52.494;4.654;2023-05-16T13:02:42;3.38;;;0.70;;
16199;SDS011;8207;52.494;4.654;2023-05-16T13:05:09;2.88;;;0.70;;
16199;SDS011;8207;52.494;4.654;2023-05-16T13:07:37;5.72;;;1.13;;
16199;SDS011;8207;52.494;4.654;2023-05-16T13:10:05;6.18;;;1.00;;
16199;SDS011;8207;52.494;4.654;2023-05-16T13:12:34;4.57;;;1.27;;
16199;SDS011;8207;52.494;4.654;2023-05-16T13:15:01;2.30;;;0.80;;
16199;SDS011;8207;52.494;4.654;2023-05-16T13:17:30;1.95;;;1.02;;
16199;SDS011;8207;52.494;4.654;2023-05-16T13:19:57;6.32;;;1.17;;
16199;SDS011;8207;52.494;4.654;2023-05-16T13:22:25;5.32;;;1.30;;
16199;SDS011;8207;52.494;4.654;2023-05-16T13:24:52;7.30;;;1.40;;
16199;SDS011;8207;52.494;4.654;2023-05-16T13:27:19;4.90;;;1.35;;
16199;SDS011;8207;52.494;4.654;2023-05-16T13:29:46;5.18;;;1.30;;
16199;SDS011;8207;52.494;4.654;2023-05-16T13:32:12;4.10;;;1.80;;
16199;SDS011;8207;52.494;4.654;2023-05-16T13:34:41;4.95;;;1.30;;
16199;SDS011;8207;52.494;4.654;2023-05-16T13:37:07;4.53;;;1.73;;
16199;SDS011;8207;52.494;4.654;2023-05-16T13:39:34;4.80;;;1.48;;
16199;SDS011;8207;52.494;4.654;2023-05-16T13:42:01;8.18;;;1.80;;
16199;SDS011;8207;52.494;4.654;2023-05-16T13:44:28;3.47;;;1.33;;
16199;SDS011;8207;52.494;4.654;2023-05-16T13:46:55;6.95;;;1.50;;
16199;SDS011;8207;52.494;4.654;2023-05-16T13:49:22;4.70;;;1.30;;
16199;SDS011;8207;52.494;4.654;2023-05-16T13:51:51;6.32;;;1.70;;
16199;SDS011;8207;52.494;4.654;2023-05-16T13:54:18;5.13;;;1.83;;
16199;SDS011;8207;52.494;4.654;2023-05-16T13:56:45;3.35;;;1.42;;
16199;SDS011;8207;52.494;4.654;2023-05-16T13:59:12;7.18;;;1.40;;
16199;SDS011;8207;52.494;4.654;2023-05-16T14:01:39;4.03;;;1.60;;
16199;SDS011;8207;52.494;4.654;2023-05-16T14:04:07;8.45;;;2.28;;
16199;SDS011;8207;52.494;4.654;2023-05-16T14:06:34;4.68;;;1.58;;
16199;SDS011;8207;52.494;4.654;2023-05-16T14:09:02;6.38;;;1.80;;
16199;SDS011;8207;52.494;4.654;2023-05-16T14:11:30;2.72;;;1.30;;
16199;SDS011;8207;52.494;4.654;2023-05-16T14:13:57;5.05;;;1.67;;
16199;SDS011;8207;52.494;4.654;2023-05-16T14:16:24;8.85;;;2.17;;
16199;SDS011;8207;52.494;4.654;2023-05-16T14:18:51;4.88;;;1.50;;
16199;SDS011;8207;52.494;4.654;2023-05-16T14:21:18;7.15;;;1.65;;
16199;SDS011;8207;52.494;4.654;2023-05-16T14:23:45;5.78;;;1.80;;
16199;SDS011;8207;52.494;4.654;2023-05-16T14:26:14;8.93;;;1.95;;
16199;SDS011;8207;52.494;4.654;2023-05-16T14:28:42;4.70;;;2.00;;
16199;SDS011;8207;52.494;4.654;2023-05-16T14:31:09;3.72;;;1.63;;
16199;SDS011;8207;52.494;4.654;2023-05-16T14:33:36;4.20;;;1.60;;
16199;SDS011;8207;52.494;4.654;2023-05-16T14:36:05;6.80;;;2.00;;
16199;SDS011;8207;52.494;4.654;2023-05-16T14:38:33;7.22;;;1.30;;
16199;SDS011;8207;52.494;4.654;2023-05-16T14:40:59;3.78;;;1.60;;
16199;SDS011;8207;52.494;4.654;2023-05-16T14:43:28;5.22;;;1.95;;
16199;SDS011;8207;52.494;4.654;2023-05-16T14:45:55;5.25;;;1.80;;
16199;SDS011;8207;52.494;4.654;2023-05-16T14:48:22;6.15;;;1.75;;
16199;SDS011;8207;52.494;4.654;2023-05-16T14:50:48;5.82;;;2.00;;
16199;SDS011;8207;52.494;4.654;2023-05-16T14:53:16;4.50;;;2.00;;
16199;SDS011;8207;52.494;4.654;2023-05-16T14:55:42;9.65;;;2.42;;
16199;SDS011;8207;52.494;4.654;2023-05-16T14:58:09;8.20;;;2.83;;
16199;SDS011;8207;52.494;4.654;2023-05-16T15:00:38;11.15;;;3.28;;
16199;SDS011;8207;52.494;4.654;2023-05-16T15:03:05;8.23;;;3.40;;
16199;SDS011;8207;52.494;4.654;2023-05-16T15:05:31;12.13;;;4.28;;
16199;SDS011;8207;52.494;4.654;2023-05-16T15:07:59;7.60;;;3.50;;
16199;SDS011;8207;52.494;4.654;2023-05-16T15:10:26;8.75;;;3.28;;